sensor_id;sensor_type;location;lat;lon;timestamp;pressure;altitude;pressure_sealevel;temperature;humidity
54850;BME280;47660;51.334;12.396;2024-03-02T00:02:07;99153.94;;;19.02;44.58
54850;BME280;47660;51.334;12.396;2024-03-02T00:04:33;99154.50;;;18.89;44.78
54850;BME280;47660;51.334;12.396;2024-03-02T00:06:58;99151.53;;;19.22;44.54
54850;BME280;47660;51.334;12.396;2024-03-02T00:09:24;99152.50;;;19.44;43.91
54850;BME280;47660;51.334;12.396;2024-03-02T00:11:49;99152.72;;;19.04;44.70
54850;BME280;47660;51.334;12.396;2024-03-02T00:14:16;99145.81;;;19.40;44.21
54850;BME280;47660;51.334;12.396;2024-03-02T00:16:41;99151.06;;;19.33;44.17
54850;BME280;47660;51.334;12.396;2024-03-02T00:19:09;99147.94;;;19.59;44.21
54850;BME280;47660;51.334;12.396;2024-03-02T00:21:34;99148.41;;;19.48;43.95
54850;BME280;47660;51.334;12.396;2024-03-02T00:24:01;99150.03;;;19.04;45.04
54850;BME280;47660;51.334;12.396;2024-03-02T00:26:32;99159.16;;;19.33;44.50
54850;BME280;47660;51.334;12.396;2024-03-02T00:28:57;99151.50;;;19.07;44.86
54850;BME280;47660;51.334;12.396;2024-03-02T00:31:22;99144.56;;;19.12;44.77
54850;BME280;47660;51.334;12.396;2024-03-02T00:33:48;99143.34;;;19.30;44.60
54850;BME280;47660;51.334;12.396;2024-03-02T00:36:16;99141.59;;;19.22;44.75
54850;BME280;47660;51.334;12.396;2024-03-02T00:38:52;99139.09;;;19.51;44.27
54850;BME280;47660;51.334;12.396;2024-03-02T00:46:17;99127.03;;;19.62;44.14
54850;BME280;47660;51.334;12.396;2024-03-02T00:48:53;99128.97;;;19.53;44.40
54850;BME280;47660;51.334;12.396;2024-03-02T00:51:20;99131.91;;;18.98;45.20
54850;BME280;47660;51.334;12.396;2024-03-02T00:53:46;99129.63;;;19.25;44.75
54850;BME280;47660;51.334;12.396;2024-03-02T00:56:11;99128.41;;;19.57;43.96
54850;BME280;47660;51.334;12.396;2024-03-02T00:58:37;99126.66;;;19.65;43.64
54850;BME280;47660;51.334;12.396;2024-03-02T01:01:03;99125.56;;;19.44;44.09
54850;BME280;47660;51.334;12.396;2024-03-02T01:03:28;99128.72;;;18.94;44.89
54850;BME280;47660;51.334;12.396;2024-03-02T01:05:53;99126.72;;;19.11;44.73
54850;BME280;47660;51.334;12.396;2024-03-02T01:08:19;99126.81;;;19.18;44.67
54850;BME280;47660;51.334;12.396;2024-03-02T01:10:44;99130.81;;;19.22;44.47
54850;BME280;47660;51.334;12.396;2024-03-02T01:13:09;99131.31;;;19.41;44.41
54850;BME280;47660;51.334;12.396;2024-03-02T01:15:35;99125.16;;;19.17;44.60
54850;BME280;47660;51.334;12.396;2024-03-02T01:18:00;99127.09;;;19.08;44.79
54850;BME280;47660;51.334;12.396;2024-03-02T01:20:25;99120.50;;;19.11;44.49
54850;BME280;47660;51.334;12.396;2024-03-02T01:22:51;99130.44;;;19.10;44.69
54850;BME280;47660;51.334;12.396;2024-03-02T01:25:16;99123.31;;;18.94;45.03
54850;BME280;47660;51.334;12.396;2024-03-02T01:27:41;99115.03;;;18.81;45.34
54850;BME280;47660;51.334;12.396;2024-03-02T01:30:07;99128.28;;;18.13;47.19
54850;BME280;47660;51.334;12.396;2024-03-02T01:32:32;99125.25;;;18.62;45.95
54850;BME280;47660;51.334;12.396;2024-03-02T01:34:57;99129.44;;;18.88;45.23
54850;BME280;47660;51.334;12.396;2024-03-02T01:37:23;99122.63;;;19.00;45.30
54850;BME280;47660;51.334;12.396;2024-03-02T01:39:48;99134.13;;;18.71;45.81
54850;BME280;47660;51.334;12.396;2024-03-02T01:42:14;99125.06;;;18.87;45.60
54850;BME280;47660;51.334;12.396;2024-03-02T01:44:40;99128.69;;;19.18;45.09
54850;BME280;47660;51.334;12.396;2024-03-02T01:47:05;99126.81;;;19.18;44.50
54850;BME280;47660;51.334;12.396;2024-03-02T01:49:30;99131.47;;;18.86;45.13
54850;BME280;47660;51.334;12.396;2024-03-02T01:51:56;99130.22;;;18.74;45.77
54850;BME280;47660;51.334;12.396;2024-03-02T01:54:21;99129.56;;;18.48;46.05
54850;BME280;47660;51.334;12.396;2024-03-02T01:56:46;99123.50;;;18.93;45.23
54850;BME280;47660;51.334;12.396;2024-03-02T01:59:12;99129.75;;;18.70;45.56
54850;BME280;47660;51.334;12.396;2024-03-02T02:01:38;99122.16;;;18.74;45.61
54850;BME280;47660;51.334;12.396;2024-03-02T02:04:04;99120.66;;;18.71;45.58
54850;BME280;47660;51.334;12.396;2024-03-02T02:06:31;99124.13;;;18.80;45.62
54850;BME280;47660;51.334;12.396;2024-03-02T02:08:57;99129.88;;;18.77;45.84
54850;BME280;47660;51.334;12.396;2024-03-02T02:11:22;99129.88;;;18.53;45.76
54850;BME280;47660;51.334;12.396;2024-03-02T02:13:47;99126.72;;;18.73;45.81
54850;BME280;47660;51.334;12.396;2024-03-02T02:16:13;99120.06;;;18.84;45.47
54850;BME280;47660;51.334;12.396;2024-03-02T02:18:38;99117.91;;;18.56;45.65
54850;BME280;47660;51.334;12.396;2024-03-02T02:21:04;99126.97;;;18.08;46.58
54850;BME280;47660;51.334;12.396;2024-03-02T02:23:29;99120.66;;;18.24;46.50
54850;BME280;47660;51.334;12.396;2024-03-02T02:25:54;99119.00;;;18.47;46.25
54850;BME280;47660;51.334;12.396;2024-03-02T02:28:19;99124.56;;;17.82;47.66
54850;BME280;47660;51.334;12.396;2024-03-02T02:30:45;99120.56;;;17.78;47.62
54850;BME280;47660;51.334;12.396;2024-03-02T02:33:10;99116.75;;;18.04;47.02
54850;BME280;47660;51.334;12.396;2024-03-02T02:35:35;99115.53;;;18.06;46.93
54850;BME280;47660;51.334;12.396;2024-03-02T02:38:02;99112.81;;;18.15;46.81
54850;BME280;47660;51.334;12.396;2024-03-02T02:40:28;99126.25;;;18.15;46.65
54850;BME280;47660;51.334;12.396;2024-03-02T02:42:56;99119.91;;;18.07;47.04
54850;BME280;47660;51.334;12.396;2024-03-02T02:45:21;99118.03;;;18.39;46.17
54850;BME280;47660;51.334;12.396;2024-03-02T02:47:46;99114.72;;;18.06;46.64
54850;BME280;47660;51.334;12.396;2024-03-02T02:50:12;99120.75;;;17.60;47.79
54850;BME280;47660;51.334;12.396;2024-03-02T02:52:39;99119.31;;;17.89;47.77
54850;BME280;47660;51.334;12.396;2024-03-02T02:55:07;99113.72;;;18.30;46.94
54850;BME280;47660;51.334;12.396;2024-03-02T02:57:33;99126.63;;;17.72;47.82
54850;BME280;47660;51.334;12.396;2024-03-02T03:00:02;99114.47;;;17.44;48.48
54850;BME280;47660;51.334;12.396;2024-03-02T03:02:30;99118.22;;;17.10;48.80
54850;BME280;47660;51.334;12.396;2024-03-02T03:04:56;99115.09;;;17.55;47.96
54850;BME280;47660;51.334;12.396;2024-03-02T03:07:22;99115.94;;;17.55;48.25
54850;BME280;47660;51.334;12.396;2024-03-02T03:09:47;99113.31;;;17.30;48.60
54850;BME280;47660;51.334;12.396;2024-03-02T03:12:13;99111.38;;;17.95;47.07
54850;BME280;47660;51.334;12.396;2024-03-02T03:14:40;99108.06;;;17.45;48.68
54850;BME280;47660;51.334;12.396;2024-03-02T03:17:06;99111.69;;;17.61;48.03
54850;BME280;47660;51.334;12.396;2024-03-02T03:19:32;99113.56;;;17.60;47.85
54850;BME280;47660;51.334;12.396;2024-03-02T03:21:57;99118.59;;;18.03;46.80
54850;BME280;47660;51.334;12.396;2024-03-02T03:24:22;99119.72;;;17.29;48.45
54850;BME280;47660;51.334;12.396;2024-03-02T03:26:47;99116.81;;;17.47;48.21
54850;BME280;47660;51.334;12.396;2024-03-02T03:29:13;99121.09;;;17.65;47.61
54850;BME280;47660;51.334;12.396;2024-03-02T03:31:38;99121.47;;;18.02;47.17
54850;BME280;47660;51.334;12.396;2024-03-02T03:34:03;99125.91;;;18.18;46.49
54850;BME280;47660;51.334;12.396;2024-03-02T03:36:28;99128.78;;;17.76;47.09
54850;BME280;47660;51.334;12.396;2024-03-02T03:38:53;99127.72;;;18.72;45.44
54850;BME280;47660;51.334;12.396;2024-03-02T03:41:19;99122.81;;;18.29;46.16
54850;BME280;47660;51.334;12.396;2024-03-02T03:43:44;99139.09;;;18.04;46.54
54850;BME280;47660;51.334;12.396;2024-03-02T03:46:09;99142.22;;;17.76;46.90
54850;BME280;47660;51.334;12.396;2024-03-02T03:48:35;99140.72;;;17.74;47.07
54850;BME280;47660;51.334;12.396;2024-03-02T03:51:00;99139.03;;;17.73;47.42
54850;BME280;47660;51.334;12.396;2024-03-02T03:53:25;99146.16;;;17.97;46.67
54850;BME280;47660;51.334;12.396;2024-03-02T03:55:50;99138.34;;;17.79;47.23
54850;BME280;47660;51.334;12.396;2024-03-02T03:58:16;99150.22;;;17.93;46.85
54850;BME280;47660;51.334;12.396;2024-03-02T04:00:42;99147.72;;;18.23;46.34
54850;BME280;47660;51.334;12.396;2024-03-02T04:03:07;99147.44;;;18.64;45.62
54850;BME280;47660;51.334;12.396;2024-03-02T04:05:33;99132.81;;;18.67;45.46
54850;BME280;47660;51.334;12.396;2024-03-02T04:07:58;99141.66;;;17.89;46.88
54850;BME280;47660;51.334;12.396;2024-03-02T04:10:23;99134.59;;;18.51;45.70
54850;BME280;47660;51.334;12.396;2024-03-02T04:12:49;99134.88;;;18.80;44.84
54850;BME280;47660;51.334;12.396;2024-03-02T04:15:15;99144.09;;;18.62;45.07
54850;BME280;47660;51.334;12.396;2024-03-02T04:17:40;99144.41;;;18.44;45.43
54850;BME280;47660;51.334;12.396;2024-03-02T04:20:06;99144.34;;;18.52;45.59
54850;BME280;47660;51.334;12.396;2024-03-02T04:22:33;99144.34;;;18.52;45.65
54850;BME280;47660;51.334;12.396;2024-03-02T04:24:59;99150.91;;;17.87;46.21
54850;BME280;47660;51.334;12.396;2024-03-02T04:27:24;99164.94;;;17.57;47.29
54850;BME280;47660;51.334;12.396;2024-03-02T04:29:49;99161.59;;;17.47;47.98
54850;BME280;47660;51.334;12.396;2024-03-02T04:32:15;99159.75;;;17.56;47.54
54850;BME280;47660;51.334;12.396;2024-03-02T04:34:40;99169.72;;;17.14;48.71
54850;BME280;47660;51.334;12.396;2024-03-02T04:37:05;99175.03;;;17.55;47.69
54850;BME280;47660;51.334;12.396;2024-03-02T04:39:31;99168.38;;;17.99;46.78
54850;BME280;47660;51.334;12.396;2024-03-02T04:41:56;99182.97;;;17.40;47.66
54850;BME280;47660;51.334;12.396;2024-03-02T04:44:21;99179.09;;;17.34;47.85
54850;BME280;47660;51.334;12.396;2024-03-02T04:46:46;99171.44;;;17.71;46.96
54850;BME280;47660;51.334;12.396;2024-03-02T04:49:12;99178.47;;;17.07;48.63
54850;BME280;47660;51.334;12.396;2024-03-02T04:51:37;99180.97;;;18.30;46.06
54850;BME280;47660;51.334;12.396;2024-03-02T04:54:02;99186.16;;;18.00;46.47
54850;BME280;47660;51.334;12.396;2024-03-02T04:56:28;99175.00;;;18.43;45.73
54850;BME280;47660;51.334;12.396;2024-03-02T04:59:09;99179.19;;;18.22;46.11
54850;BME280;47660;51.334;12.396;2024-03-02T05:01:34;99177.19;;;18.16;45.71
54850;BME280;47660;51.334;12.396;2024-03-02T05:03:59;99170.69;;;18.34;45.51
54850;BME280;47660;51.334;12.396;2024-03-02T05:06:25;99170.59;;;18.19;45.96
54850;BME280;47660;51.334;12.396;2024-03-02T05:08:50;99170.13;;;18.47;45.39
54850;BME280;47660;51.334;12.396;2024-03-02T05:11:15;99171.78;;;18.24;45.69
54850;BME280;47660;51.334;12.396;2024-03-02T05:13:59;99169.16;;;18.39;45.29
54850;BME280;47660;51.334;12.396;2024-03-02T05:16:24;99175.34;;;18.08;45.84
54850;BME280;47660;51.334;12.396;2024-03-02T05:18:49;99189.09;;;17.65;46.63
54850;BME280;47660;51.334;12.396;2024-03-02T05:21:15;99192.34;;;17.52;47.01
54850;BME280;47660;51.334;12.396;2024-03-02T05:23:40;99189.34;;;17.22;47.58
54850;BME280;47660;51.334;12.396;2024-03-02T05:26:05;99193.88;;;17.30;47.80
54850;BME280;47660;51.334;12.396;2024-03-02T05:28:31;99187.84;;;17.93;46.58
54850;BME280;47660;51.334;12.396;2024-03-02T05:30:56;99195.25;;;17.99;46.11
54850;BME280;47660;51.334;12.396;2024-03-02T05:33:21;99193.13;;;17.70;46.88
54850;BME280;47660;51.334;12.396;2024-03-02T05:35:47;99201.34;;;17.68;46.95
54850;BME280;47660;51.334;12.396;2024-03-02T05:38:15;99209.66;;;17.33;47.70
54850;BME280;47660;51.334;12.396;2024-03-02T05:40:40;99199.75;;;17.90;46.74
54850;BME280;47660;51.334;12.396;2024-03-02T05:43:05;99197.06;;;18.38;45.27
54850;BME280;47660;51.334;12.396;2024-03-02T05:45:31;99205.38;;;18.29;45.22
54850;BME280;47660;51.334;12.396;2024-03-02T05:47:56;99200.41;;;18.09;45.77
54850;BME280;47660;51.334;12.396;2024-03-02T05:50:21;99206.69;;;17.85;46.38
54850;BME280;47660;51.334;12.396;2024-03-02T05:52:46;99206.00;;;17.99;46.29
54850;BME280;47660;51.334;12.396;2024-03-02T05:55:12;99212.88;;;17.85;46.42
54850;BME280;47660;51.334;12.396;2024-03-02T05:57:37;99222.34;;;17.73;46.92
54850;BME280;47660;51.334;12.396;2024-03-02T06:00:08;99216.56;;;17.92;46.50
54850;BME280;47660;51.334;12.396;2024-03-02T06:02:34;99219.34;;;17.67;46.90
54850;BME280;47660;51.334;12.396;2024-03-02T06:05:00;99213.72;;;18.02;46.07
54850;BME280;47660;51.334;12.396;2024-03-02T06:07:25;99224.94;;;17.33;47.41
54850;BME280;47660;51.334;12.396;2024-03-02T06:09:51;99235.47;;;17.34;47.96
54850;BME280;47660;51.334;12.396;2024-03-02T06:12:17;99223.28;;;18.05;46.42
54850;BME280;47660;51.334;12.396;2024-03-02T06:14:43;99225.88;;;17.73;46.92
54850;BME280;47660;51.334;12.396;2024-03-02T06:17:08;99239.31;;;17.65;47.15
54850;BME280;47660;51.334;12.396;2024-03-02T06:19:33;99243.72;;;17.58;47.76
54850;BME280;47660;51.334;12.396;2024-03-02T06:21:58;99244.88;;;18.20;46.40
54850;BME280;47660;51.334;12.396;2024-03-02T06:24:24;99245.81;;;17.87;46.91
54850;BME280;47660;51.334;12.396;2024-03-02T06:26:51;99249.16;;;18.06;46.46
54850;BME280;47660;51.334;12.396;2024-03-02T06:29:17;99238.34;;;18.22;46.02
54850;BME280;47660;51.334;12.396;2024-03-02T06:31:42;99243.13;;;18.44;45.29
54850;BME280;47660;51.334;12.396;2024-03-02T06:34:07;99246.66;;;17.88;46.82
54850;BME280;47660;51.334;12.396;2024-03-02T06:36:33;99239.97;;;18.63;45.31
54850;BME280;47660;51.334;12.396;2024-03-02T06:38:59;99241.16;;;18.61;45.43
54850;BME280;47660;51.334;12.396;2024-03-02T06:41:24;99237.06;;;18.73;44.68
54850;BME280;47660;51.334;12.396;2024-03-02T06:43:49;99230.81;;;18.09;46.29
54850;BME280;47660;51.334;12.396;2024-03-02T06:46:15;99234.09;;;18.60;45.26
54850;BME280;47660;51.334;12.396;2024-03-02T06:48:40;99237.56;;;19.00;44.61
54850;BME280;47660;51.334;12.396;2024-03-02T06:51:05;99237.69;;;18.52;45.74
54850;BME280;47660;51.334;12.396;2024-03-02T06:53:30;99230.94;;;18.79;44.77
54850;BME280;47660;51.334;12.396;2024-03-02T06:55:58;99228.09;;;18.81;45.03
54850;BME280;47660;51.334;12.396;2024-03-02T06:58:23;99232.56;;;18.65;45.31
54850;BME280;47660;51.334;12.396;2024-03-02T07:00:49;99229.91;;;19.50;43.81
54850;BME280;47660;51.334;12.396;2024-03-02T07:03:14;99227.63;;;19.24;43.84
54850;BME280;47660;51.334;12.396;2024-03-02T07:05:39;99232.34;;;19.75;43.23
54850;BME280;47660;51.334;12.396;2024-03-02T07:08:05;99233.81;;;19.78;43.23
54850;BME280;47660;51.334;12.396;2024-03-02T07:10:31;99232.72;;;19.19;44.19
54850;BME280;47660;51.334;12.396;2024-03-02T07:12:56;99238.50;;;18.84;44.69
54850;BME280;47660;51.334;12.396;2024-03-02T07:15:21;99229.91;;;19.12;43.74
54850;BME280;47660;51.334;12.396;2024-03-02T07:17:52;99233.22;;;19.37;43.39
54850;BME280;47660;51.334;12.396;2024-03-02T07:20:18;99236.09;;;19.89;42.34
54850;BME280;47660;51.334;12.396;2024-03-02T07:22:43;99242.59;;;20.10;41.87
54850;BME280;47660;51.334;12.396;2024-03-02T07:25:08;99241.97;;;19.93;42.09
54850;BME280;47660;51.334;12.396;2024-03-02T07:27:34;99243.69;;;19.85;42.10
54850;BME280;47660;51.334;12.396;2024-03-02T07:30:01;99247.53;;;20.06;41.86
54850;BME280;47660;51.334;12.396;2024-03-02T07:32:26;99252.53;;;19.79;42.44
54850;BME280;47660;51.334;12.396;2024-03-02T07:34:52;99244.84;;;19.38;43.31
54850;BME280;47660;51.334;12.396;2024-03-02T07:37:17;99247.94;;;19.65;42.60
54850;BME280;47660;51.334;12.396;2024-03-02T07:39:44;99255.13;;;19.34;43.67
54850;BME280;47660;51.334;12.396;2024-03-02T07:42:10;99264.03;;;18.65;45.07
54850;BME280;47660;51.334;12.396;2024-03-02T07:44:35;99262.63;;;18.77;44.71
54850;BME280;47660;51.334;12.396;2024-03-02T07:47:00;99263.44;;;19.48;43.43
54850;BME280;47660;51.334;12.396;2024-03-02T07:49:26;99265.22;;;19.17;44.13
54850;BME280;47660;51.334;12.396;2024-03-02T07:51:51;99265.31;;;20.00;42.42
54850;BME280;47660;51.334;12.396;2024-03-02T07:54:17;99275.91;;;20.17;42.13
54850;BME280;47660;51.334;12.396;2024-03-02T07:56:42;99264.34;;;20.23;42.00
54850;BME280;47660;51.334;12.396;2024-03-02T07:59:08;99269.72;;;19.63;43.57
54850;BME280;47660;51.334;12.396;2024-03-02T08:01:33;99263.81;;;20.28;42.10
54850;BME280;47660;51.334;12.396;2024-03-02T08:04:00;99271.53;;;19.63;43.12
54850;BME280;47660;51.334;12.396;2024-03-02T08:06:26;99274.22;;;20.01;42.90
54850;BME280;47660;51.334;12.396;2024-03-02T08:08:55;99275.41;;;20.28;42.35
54850;BME280;47660;51.334;12.396;2024-03-02T08:11:21;99276.06;;;20.30;41.91
54850;BME280;47660;51.334;12.396;2024-03-02T08:13:46;99281.69;;;19.75;43.24
54850;BME280;47660;51.334;12.396;2024-03-02T08:16:11;99273.66;;;20.36;41.89
54850;BME280;47660;51.334;12.396;2024-03-02T08:18:37;99273.72;;;21.16;40.72
54850;BME280;47660;51.334;12.396;2024-03-02T08:21:02;99274.31;;;21.11;40.54
54850;BME280;47660;51.334;12.396;2024-03-02T08:23:27;99273.72;;;21.16;40.61
54850;BME280;47660;51.334;12.396;2024-03-02T08:25:53;99272.44;;;20.38;41.67
54850;BME280;47660;51.334;12.396;2024-03-02T08:28:18;99271.66;;;20.59;41.35
54850;BME280;47660;51.334;12.396;2024-03-02T08:30:43;99274.13;;;20.39;41.75
54850;BME280;47660;51.334;12.396;2024-03-02T08:33:08;99277.19;;;21.10;40.64
54850;BME280;47660;51.334;12.396;2024-03-02T08:35:34;99281.88;;;20.79;41.16
54850;BME280;47660;51.334;12.396;2024-03-02T08:38:02;99288.16;;;20.34;42.25
54850;BME280;47660;51.334;12.396;2024-03-02T08:40:28;99288.00;;;20.21;42.65
54850;BME280;47660;51.334;12.396;2024-03-02T08:42:53;99286.25;;;19.75;43.09
54850;BME280;47660;51.334;12.396;2024-03-02T08:45:19;99293.53;;;20.80;41.23
54850;BME280;47660;51.334;12.396;2024-03-02T08:47:45;99305.38;;;20.03;42.44
54850;BME280;47660;51.334;12.396;2024-03-02T08:50:10;99305.34;;;20.63;41.94
54850;BME280;47660;51.334;12.396;2024-03-02T08:52:36;99308.72;;;21.46;40.47
54850;BME280;47660;51.334;12.396;2024-03-02T08:55:01;99308.47;;;21.19;41.00
54850;BME280;47660;51.334;12.396;2024-03-02T08:57:27;99304.16;;;21.03;41.23
54850;BME280;47660;51.334;12.396;2024-03-02T08:59:52;99307.56;;;21.77;39.94
54850;BME280;47660;51.334;12.396;2024-03-02T09:02:18;99308.34;;;20.69;41.56
54850;BME280;47660;51.334;12.396;2024-03-02T09:04:43;99303.72;;;21.43;40.39
54850;BME280;47660;51.334;12.396;2024-03-02T09:07:08;99305.84;;;22.39;39.16
54850;BME280;47660;51.334;12.396;2024-03-02T09:09:34;99298.25;;;22.15;39.17
54850;BME280;47660;51.334;12.396;2024-03-02T09:12:00;99308.28;;;22.28;38.91
54850;BME280;47660;51.334;12.396;2024-03-02T09:14:25;99297.50;;;22.41;38.78
54850;BME280;47660;51.334;12.396;2024-03-02T09:16:50;99303.81;;;23.04;37.83
54850;BME280;47660;51.334;12.396;2024-03-02T09:19:16;99309.66;;;23.07;37.62
54850;BME280;47660;51.334;12.396;2024-03-02T09:21:42;99303.47;;;23.40;37.40
54850;BME280;47660;51.334;12.396;2024-03-02T09:24:07;99308.03;;;22.51;38.43
54850;BME280;47660;51.334;12.396;2024-03-02T09:26:32;99308.84;;;23.07;37.50
54850;BME280;47660;51.334;12.396;2024-03-02T09:28:58;99321.28;;;22.88;38.06
54850;BME280;47660;51.334;12.396;2024-03-02T09:31:23;99314.50;;;22.21;39.34
54850;BME280;47660;51.334;12.396;2024-03-02T09:33:48;99318.25;;;22.20;39.17
54850;BME280;47660;51.334;12.396;2024-03-02T09:36:18;99318.38;;;21.12;40.91
54850;BME280;47660;51.334;12.396;2024-03-02T09:38:44;99326.47;;;22.05;39.37
54850;BME280;47660;51.334;12.396;2024-03-02T09:41:09;99322.38;;;22.45;38.88
54850;BME280;47660;51.334;12.396;2024-03-02T09:43:35;99327.63;;;22.53;38.68
54850;BME280;47660;51.334;12.396;2024-03-02T09:46:01;99337.66;;;21.08;41.17
54850;BME280;47660;51.334;12.396;2024-03-02T09:48:26;99341.97;;;21.25;40.79
54850;BME280;47660;51.334;12.396;2024-03-02T09:50:52;99341.81;;;21.26;41.04
54850;BME280;47660;51.334;12.396;2024-03-02T09:53:18;99338.78;;;21.36;40.85
54850;BME280;47660;51.334;12.396;2024-03-02T09:55:46;99338.56;;;21.16;41.52
54850;BME280;47660;51.334;12.396;2024-03-02T09:58:12;99332.81;;;22.19;39.56
54850;BME280;47660;51.334;12.396;2024-03-02T10:00:37;99330.91;;;22.48;38.88
54850;BME280;47660;51.334;12.396;2024-03-02T10:03:03;99338.03;;;21.05;41.22
54850;BME280;47660;51.334;12.396;2024-03-02T10:05:29;99327.06;;;21.07;41.42
54850;BME280;47660;51.334;12.396;2024-03-02T10:08:00;99323.84;;;22.19;39.66
54850;BME280;47660;51.334;12.396;2024-03-02T10:10:38;99327.16;;;22.49;39.21
54850;BME280;47660;51.334;12.396;2024-03-02T10:13:09;99336.72;;;21.16;40.88
54850;BME280;47660;51.334;12.396;2024-03-02T10:15:36;99320.31;;;22.53;38.98
54850;BME280;47660;51.334;12.396;2024-03-02T10:18:12;99317.25;;;23.93;36.83
54850;BME280;47660;51.334;12.396;2024-03-02T10:20:39;99313.06;;;24.69;35.38
54850;BME280;47660;51.334;12.396;2024-03-02T10:23:14;99312.19;;;24.89;35.23
54850;BME280;47660;51.334;12.396;2024-03-02T10:25:40;99306.59;;;27.46;31.33
54850;BME280;47660;51.334;12.396;2024-03-02T10:28:06;99306.28;;;30.05;27.84
54850;BME280;47660;51.334;12.396;2024-03-02T10:30:32;99295.91;;;29.56;27.69
54850;BME280;47660;51.334;12.396;2024-03-02T10:32:58;99296.81;;;28.28;29.12
54850;BME280;47660;51.334;12.396;2024-03-02T10:35:23;99292.69;;;29.42;28.06
54850;BME280;47660;51.334;12.396;2024-03-02T10:37:49;99297.59;;;30.52;26.81
54850;BME280;47660;51.334;12.396;2024-03-02T10:40:15;99289.28;;;30.47;26.53
54850;BME280;47660;51.334;12.396;2024-03-02T10:42:42;99281.72;;;31.04;25.91
54850;BME280;47660;51.334;12.396;2024-03-02T10:45:09;99274.09;;;33.71;23.40
54850;BME280;47660;51.334;12.396;2024-03-02T10:47:37;99279.59;;;31.77;24.40
54850;BME280;47660;51.334;12.396;2024-03-02T10:50:06;99278.75;;;33.76;22.11
54850;BME280;47660;51.334;12.396;2024-03-02T10:52:39;99265.72;;;34.18;22.07
54850;BME280;47660;51.334;12.396;2024-03-02T10:55:06;99263.34;;;35.71;21.22
54850;BME280;47660;51.334;12.396;2024-03-02T10:57:52;99273.03;;;34.54;21.13
54850;BME280;47660;51.334;12.396;2024-03-02T11:00:19;99265.53;;;37.09;19.64
54850;BME280;47660;51.334;12.396;2024-03-02T11:02:51;99255.97;;;37.82;18.86
54850;BME280;47660;51.334;12.396;2024-03-02T11:05:32;99268.44;;;37.51;18.85
54850;BME280;47660;51.334;12.396;2024-03-02T11:08:06;99254.84;;;37.83;18.35
54850;BME280;47660;51.334;12.396;2024-03-02T11:10:35;99249.69;;;38.97;17.82
54850;BME280;47660;51.334;12.396;2024-03-02T11:13:05;99262.56;;;38.78;18.01
54850;BME280;47660;51.334;12.396;2024-03-02T11:15:31;99258.81;;;37.29;18.85
54850;BME280;47660;51.334;12.396;2024-03-02T11:17:58;99250.31;;;37.73;17.99
54850;BME280;47660;51.334;12.396;2024-03-02T11:20:24;99255.97;;;38.52;17.37
54850;BME280;47660;51.334;12.396;2024-03-02T11:22:50;99249.94;;;38.86;17.53
54850;BME280;47660;51.334;12.396;2024-03-02T11:25:26;99263.38;;;38.42;17.66
54850;BME280;47660;51.334;12.396;2024-03-02T11:32:57;99246.75;;;40.19;16.49
54850;BME280;47660;51.334;12.396;2024-03-02T11:35:24;99245.56;;;38.94;16.98
54850;BME280;47660;51.334;12.396;2024-03-02T11:37:51;99247.72;;;36.96;18.65
54850;BME280;47660;51.334;12.396;2024-03-02T11:40:21;99241.22;;;38.00;18.36
54850;BME280;47660;51.334;12.396;2024-03-02T11:42:47;99244.28;;;38.77;17.16
54850;BME280;47660;51.334;12.396;2024-03-02T11:45:16;99241.38;;;40.23;16.74
54850;BME280;47660;51.334;12.396;2024-03-02T11:47:46;99236.09;;;39.18;16.48
54850;BME280;47660;51.334;12.396;2024-03-02T11:50:11;99238.47;;;37.53;17.70
54850;BME280;47660;51.334;12.396;2024-03-02T11:52:38;99250.78;;;34.29;20.19
54850;BME280;47660;51.334;12.396;2024-03-02T11:55:05;99236.63;;;36.77;18.42
54850;BME280;47660;51.334;12.396;2024-03-02T11:57:32;99243.59;;;36.12;19.14
54850;BME280;47660;51.334;12.396;2024-03-02T11:59:58;99233.78;;;38.10;17.89
54850;BME280;47660;51.334;12.396;2024-03-02T12:02:24;99241.38;;;37.90;17.57
54850;BME280;47660;51.334;12.396;2024-03-02T12:04:49;99230.03;;;39.16;16.83
54850;BME280;47660;51.334;12.396;2024-03-02T12:07:19;99234.09;;;37.33;17.51
54850;BME280;47660;51.334;12.396;2024-03-02T12:09:46;99234.47;;;35.23;19.22
54850;BME280;47660;51.334;12.396;2024-03-02T12:12:12;99228.53;;;37.33;18.11
54850;BME280;47660;51.334;12.396;2024-03-02T12:14:39;99222.91;;;38.13;17.45
54850;BME280;47660;51.334;12.396;2024-03-02T12:17:05;99218.88;;;37.64;18.11
54850;BME280;47660;51.334;12.396;2024-03-02T12:19:31;99225.09;;;34.44;20.25
54850;BME280;47660;51.334;12.396;2024-03-02T12:21:58;99223.97;;;35.60;18.83
54850;BME280;47660;51.334;12.396;2024-03-02T12:24:24;99218.41;;;36.90;18.10
54850;BME280;47660;51.334;12.396;2024-03-02T12:26:50;99223.88;;;34.66;20.00
54850;BME280;47660;51.334;12.396;2024-03-02T12:29:16;99214.91;;;34.34;20.27
54850;BME280;47660;51.334;12.396;2024-03-02T12:31:44;99219.44;;;35.39;19.50
54850;BME280;47660;51.334;12.396;2024-03-02T12:34:13;99205.72;;;36.70;18.76
54850;BME280;47660;51.334;12.396;2024-03-02T12:36:39;99214.47;;;34.67;19.94
54850;BME280;47660;51.334;12.396;2024-03-02T12:39:07;99221.03;;;34.71;20.15
54850;BME280;47660;51.334;12.396;2024-03-02T12:41:36;99220.72;;;34.83;19.91
54850;BME280;47660;51.334;12.396;2024-03-02T12:44:01;99219.13;;;34.72;19.50
54850;BME280;47660;51.334;12.396;2024-03-02T12:46:27;99218.34;;;34.05;20.00
54850;BME280;47660;51.334;12.396;2024-03-02T12:48:52;99206.91;;;36.45;18.51
54850;BME280;47660;51.334;12.396;2024-03-02T12:51:18;99216.03;;;34.28;19.63
54850;BME280;47660;51.334;12.396;2024-03-02T12:53:43;99208.72;;;35.03;19.09
54850;BME280;47660;51.334;12.396;2024-03-02T12:56:09;99204.34;;;36.10;18.27